sensor_id;sensor_type;location;lat;lon;timestamp;P1;durP1;ratioP1;P2;durP2;ratioP2
21621;SDS011;10973;46.706;12.340;2023-04-25T00:00:57;2.00;;;1.50;;
21621;SDS011;10973;46.706;12.340;2023-04-25T00:03:25;1.30;;;1.30;;
21621;SDS011;10973;46.706;12.340;2023-04-25T00:05:53;1.40;;;1.40;;
21621;SDS011;10973;46.706;12.340;2023-04-25T00:08:21;3.17;;;2.63;;
21621;SDS011;10973;46.706;12.340;2023-04-25T00:10:49;3.43;;;2.80;;
21621;SDS011;10973;46.706;12.340;2023-04-25T00:13:16;4.57;;;3.67;;
21621;SDS011;10973;46.706;12.340;2023-04-25T00:15:43;2.83;;;2.63;;
21621;SDS011;10973;46.706;12.340;2023-04-25T00:18:11;2.83;;;2.53;;
21621;SDS011;10973;46.706;12.340;2023-04-25T00:20:38;2.97;;;2.53;;
21621;SDS011;10973;46.706;12.340;2023-04-25T00:23:05;2.70;;;2.50;;
21621;SDS011;10973;46.706;12.340;2023-04-25T00:25:33;2.73;;;2.50;;
21621;SDS011;10973;46.706;12.340;2023-04-25T00:28:00;2.80;;;2.47;;
21621;SDS011;10973;46.706;12.340;2023-04-25T00:30:28;4.53;;;3.23;;
21621;SDS011;10973;46.706;12.340;2023-04-25T00:32:55;2.60;;;2.40;;
21621;SDS011;10973;46.706;12.340;2023-04-25T00:35:22;3.47;;;2.60;;
21621;SDS011;10973;46.706;12.340;2023-04-25T00:37:50;2.50;;;2.30;;
21621;SDS011;10973;46.706;12.340;2023-04-25T00:40:17;2.53;;;2.33;;
21621;SDS011;10973;46.706;12.340;2023-04-25T00:42:45;4.53;;;2.10;;
21621;SDS011;10973;46.706;12.340;2023-04-25T00:45:14;1.73;;;1.63;;
21621;SDS011;10973;46.706;12.340;2023-04-25T00:47:41;1.93;;;1.83;;
21621;SDS011;10973;46.706;12.340;2023-04-25T00:50:10;2.17;;;1.97;;
21621;SDS011;10973;46.706;12.340;2023-04-25T00:52:39;3.43;;;1.83;;
21621;SDS011;10973;46.706;12.340;2023-04-25T00:55:11;1.90;;;1.80;;
21621;SDS011;10973;46.706;12.340;2023-04-25T00:57:39;1.80;;;1.70;;
21621;SDS011;10973;46.706;12.340;2023-04-25T01:00:09;2.57;;;2.37;;
21621;SDS011;10973;46.706;12.340;2023-04-25T01:02:39;1.70;;;1.60;;
21621;SDS011;10973;46.706;12.340;2023-04-25T01:05:08;1.53;;;1.53;;
21621;SDS011;10973;46.706;12.340;2023-04-25T01:07:35;1.60;;;1.50;;
21621;SDS011;10973;46.706;12.340;2023-04-25T01:10:04;1.70;;;1.60;;
21621;SDS011;10973;46.706;12.340;2023-04-25T01:12:33;1.73;;;1.63;;
21621;SDS011;10973;46.706;12.340;2023-04-25T01:15:00;1.70;;;1.60;;
21621;SDS011;10973;46.706;12.340;2023-04-25T01:17:28;1.50;;;1.50;;
21621;SDS011;10973;46.706;12.340;2023-04-25T01:19:56;1.60;;;1.60;;
21621;SDS011;10973;46.706;12.340;2023-04-25T01:22:25;1.70;;;1.60;;
21621;SDS011;10973;46.706;12.340;2023-04-25T01:24:52;1.70;;;1.60;;
21621;SDS011;10973;46.706;12.340;2023-04-25T01:27:20;1.70;;;1.60;;
21621;SDS011;10973;46.706;12.340;2023-04-25T01:29:49;1.73;;;1.63;;
21621;SDS011;10973;46.706;12.340;2023-04-25T01:32:17;1.43;;;1.43;;
21621;SDS011;10973;46.706;12.340;2023-04-25T01:34:46;1.40;;;1.40;;
21621;SDS011;10973;46.706;12.340;2023-04-25T01:37:13;1.80;;;1.70;;
21621;SDS011;10973;46.706;12.340;2023-04-25T01:39:40;1.43;;;1.43;;
21621;SDS011;10973;46.706;12.340;2023-04-25T01:42:08;1.20;;;1.20;;
21621;SDS011;10973;46.706;12.340;2023-04-25T01:44:35;1.60;;;1.60;;
21621;SDS011;10973;46.706;12.340;2023-04-25T01:47:03;1.50;;;1.40;;
21621;SDS011;10973;46.706;12.340;2023-04-25T01:49:30;1.90;;;1.80;;
21621;SDS011;10973;46.706;12.340;2023-04-25T01:51:58;1.60;;;1.50;;
21621;SDS011;10973;46.706;12.340;2023-04-25T01:54:25;1.53;;;1.43;;
21621;SDS011;10973;46.706;12.340;2023-04-25T01:56:53;1.30;;;1.30;;
21621;SDS011;10973;46.706;12.340;2023-04-25T01:59:23;1.70;;;1.60;;
21621;SDS011;10973;46.706;12.340;2023-04-25T02:01:51;1.90;;;1.50;;
21621;SDS011;10973;46.706;12.340;2023-04-25T02:04:19;1.70;;;1.50;;
21621;SDS011;10973;46.706;12.340;2023-04-25T02:06:46;1.50;;;1.43;;
21621;SDS011;10973;46.706;12.340;2023-04-25T02:09:16;1.50;;;1.50;;
21621;SDS011;10973;46.706;12.340;2023-04-25T02:11:46;1.83;;;1.73;;
21621;SDS011;10973;46.706;12.340;2023-04-25T02:14:17;1.60;;;1.50;;
21621;SDS011;10973;46.706;12.340;2023-04-25T02:16:44;1.70;;;1.60;;
21621;SDS011;10973;46.706;12.340;2023-04-25T02:19:12;1.57;;;1.47;;
21621;SDS011;10973;46.706;12.340;2023-04-25T02:21:39;2.00;;;1.90;;
21621;SDS011;10973;46.706;12.340;2023-04-25T02:24:06;2.07;;;1.80;;
21621;SDS011;10973;46.706;12.340;2023-04-25T02:26:34;2.60;;;1.57;;
21621;SDS011;10973;46.706;12.340;2023-04-25T02:29:02;1.60;;;1.50;;
21621;SDS011;10973;46.706;12.340;2023-04-25T02:31:29;1.97;;;1.87;;
21621;SDS011;10973;46.706;12.340;2023-04-25T02:33:56;1.87;;;1.77;;
21621;SDS011;10973;46.706;12.340;2023-04-25T02:36:24;2.00;;;1.90;;
21621;SDS011;10973;46.706;12.340;2023-04-25T02:38:51;1.60;;;1.50;;
21621;SDS011;10973;46.706;12.340;2023-04-25T02:41:19;1.87;;;1.77;;
21621;SDS011;10973;46.706;12.340;2023-04-25T02:43:46;1.73;;;1.60;;
21621;SDS011;10973;46.706;12.340;2023-04-25T02:46:14;1.70;;;1.60;;
21621;SDS011;10973;46.706;12.340;2023-04-25T02:48:51;2.17;;;2.07;;
21621;SDS011;10973;46.706;12.340;2023-04-25T02:51:18;2.10;;;2.00;;
21621;SDS011;10973;46.706;12.340;2023-04-25T02:53:45;1.70;;;1.60;;
21621;SDS011;10973;46.706;12.340;2023-04-25T02:56:13;2.27;;;2.10;;
21621;SDS011;10973;46.706;12.340;2023-04-25T02:58:41;2.90;;;2.20;;
21621;SDS011;10973;46.706;12.340;2023-04-25T03:01:08;2.80;;;2.60;;
21621;SDS011;10973;46.706;12.340;2023-04-25T03:03:36;3.90;;;2.70;;
21621;SDS011;10973;46.706;12.340;2023-04-25T03:06:03;2.50;;;2.10;;
21621;SDS011;10973;46.706;12.340;2023-04-25T03:08:31;1.87;;;1.70;;
21621;SDS011;10973;46.706;12.340;2023-04-25T03:10:58;1.80;;;1.70;;
21621;SDS011;10973;46.706;12.340;2023-04-25T03:13:25;1.63;;;1.60;;
21621;SDS011;10973;46.706;12.340;2023-04-25T03:15:53;1.73;;;1.63;;
21621;SDS011;10973;46.706;12.340;2023-04-25T03:18:20;1.70;;;1.60;;
21621;SDS011;10973;46.706;12.340;2023-04-25T03:20:47;2.00;;;1.90;;
21621;SDS011;10973;46.706;12.340;2023-04-25T03:23:15;2.00;;;1.50;;
21621;SDS011;10973;46.706;12.340;2023-04-25T03:25:42;1.97;;;1.63;;
21621;SDS011;10973;46.706;12.340;2023-04-25T03:28:09;1.80;;;1.70;;
21621;SDS011;10973;46.706;12.340;2023-04-25T03:30:38;1.87;;;1.77;;
21621;SDS011;10973;46.706;12.340;2023-04-25T03:33:06;1.50;;;1.50;;
21621;SDS011;10973;46.706;12.340;2023-04-25T03:35:34;3.07;;;1.83;;
21621;SDS011;10973;46.706;12.340;2023-04-25T03:38:02;2.10;;;1.90;;
21621;SDS011;10973;46.706;12.340;2023-04-25T03:40:29;2.03;;;1.93;;
21621;SDS011;10973;46.706;12.340;2023-04-25T03:42:57;1.97;;;1.60;;
21621;SDS011;10973;46.706;12.340;2023-04-25T03:45:24;4.80;;;4.30;;
21621;SDS011;10973;46.706;12.340;2023-04-25T03:47:51;2.97;;;2.77;;
21621;SDS011;10973;46.706;12.340;2023-04-25T03:50:18;3.30;;;2.50;;
21621;SDS011;10973;46.706;12.340;2023-04-25T03:52:46;8.93;;;5.50;;
21621;SDS011;10973;46.706;12.340;2023-04-25T03:55:13;4.70;;;3.67;;
21621;SDS011;10973;46.706;12.340;2023-04-25T03:57:40;2.80;;;2.13;;
21621;SDS011;10973;46.706;12.340;2023-04-25T04:00:08;4.80;;;3.60;;
21621;SDS011;10973;46.706;12.340;2023-04-25T04:02:36;3.87;;;3.50;;
21621;SDS011;10973;46.706;12.340;2023-04-25T04:05:04;3.47;;;3.17;;
21621;SDS011;10973;46.706;12.340;2023-04-25T04:07:32;3.57;;;3.27;;
21621;SDS011;10973;46.706;12.340;2023-04-25T04:10:00;3.33;;;3.03;;
21621;SDS011;10973;46.706;12.340;2023-04-25T04:12:27;3.40;;;3.10;;
21621;SDS011;10973;46.706;12.340;2023-04-25T04:14:54;3.27;;;2.97;;
21621;SDS011;10973;46.706;12.340;2023-04-25T04:17:22;3.40;;;3.07;;
21621;SDS011;10973;46.706;12.340;2023-04-25T04:19:49;3.03;;;2.83;;
21621;SDS011;10973;46.706;12.340;2023-04-25T04:22:17;2.70;;;2.50;;
21621;SDS011;10973;46.706;12.340;2023-04-25T04:24:44;2.67;;;2.47;;
21621;SDS011;10973;46.706;12.340;2023-04-25T04:27:12;4.53;;;3.53;;
21621;SDS011;10973;46.706;12.340;2023-04-25T04:29:39;4.13;;;3.67;;
21621;SDS011;10973;46.706;12.340;2023-04-25T04:32:06;4.87;;;3.60;;
21621;SDS011;10973;46.706;12.340;2023-04-25T04:34:41;3.90;;;3.57;;
21621;SDS011;10973;46.706;12.340;2023-04-25T04:37:09;3.83;;;3.17;;
21621;SDS011;10973;46.706;12.340;2023-04-25T04:39:36;5.23;;;3.40;;
21621;SDS011;10973;46.706;12.340;2023-04-25T04:42:04;5.40;;;4.80;;
21621;SDS011;10973;46.706;12.340;2023-04-25T04:44:31;12.17;;;8.27;;
21621;SDS011;10973;46.706;12.340;2023-04-25T04:46:59;14.27;;;9.93;;
21621;SDS011;10973;46.706;12.340;2023-04-25T04:49:27;6.13;;;5.53;;
21621;SDS011;10973;46.706;12.340;2023-04-25T04:51:54;4.50;;;4.10;;
21621;SDS011;10973;46.706;12.340;2023-04-25T04:54:25;3.83;;;3.50;;
21621;SDS011;10973;46.706;12.340;2023-04-25T04:56:52;5.70;;;4.40;;
21621;SDS011;10973;46.706;12.340;2023-04-25T04:59:19;5.80;;;5.20;;
21621;SDS011;10973;46.706;12.340;2023-04-25T05:01:47;17.53;;;12.57;;
21621;SDS011;10973;46.706;12.340;2023-04-25T05:04:14;5.17;;;4.67;;
21621;SDS011;10973;46.706;12.340;2023-04-25T05:06:41;5.20;;;4.80;;
21621;SDS011;10973;46.706;12.340;2023-04-25T05:09:09;5.80;;;5.30;;
21621;SDS011;10973;46.706;12.340;2023-04-25T05:11:36;7.10;;;5.77;;
21621;SDS011;10973;46.706;12.340;2023-04-25T05:14:04;7.90;;;5.90;;
21621;SDS011;10973;46.706;12.340;2023-04-25T05:16:32;10.03;;;6.03;;
21621;SDS011;10973;46.706;12.340;2023-04-25T05:18:59;6.53;;;5.93;;
21621;SDS011;10973;46.706;12.340;2023-04-25T05:21:26;6.37;;;5.27;;
21621;SDS011;10973;46.706;12.340;2023-04-25T05:23:54;4.93;;;4.43;;
21621;SDS011;10973;46.706;12.340;2023-04-25T05:26:21;5.27;;;4.00;;
21621;SDS011;10973;46.706;12.340;2023-04-25T05:28:49;7.60;;;4.40;;
21621;SDS011;10973;46.706;12.340;2023-04-25T05:31:17;5.90;;;5.40;;
21621;SDS011;10973;46.706;12.340;2023-04-25T05:33:44;9.40;;;8.60;;
21621;SDS011;10973;46.706;12.340;2023-04-25T05:36:12;8.53;;;7.37;;
21621;SDS011;10973;46.706;12.340;2023-04-25T05:38:40;7.13;;;5.90;;
21621;SDS011;10973;46.706;12.340;2023-04-25T05:41:09;7.43;;;6.57;;
21621;SDS011;10973;46.706;12.340;2023-04-25T05:43:37;6.67;;;6.03;;
21621;SDS011;10973;46.706;12.340;2023-04-25T05:46:04;6.47;;;5.87;;
21621;SDS011;10973;46.706;12.340;2023-04-25T05:48:31;5.40;;;4.90;;
21621;SDS011;10973;46.706;12.340;2023-04-25T05:50:59;5.87;;;5.27;;
21621;SDS011;10973;46.706;12.340;2023-04-25T05:53:26;6.30;;;5.13;;
21621;SDS011;10973;46.706;12.340;2023-04-25T05:55:54;8.60;;;5.53;;
21621;SDS011;10973;46.706;12.340;2023-04-25T05:58:21;6.10;;;5.10;;
21621;SDS011;10973;46.706;12.340;2023-04-25T06:00:49;5.60;;;5.10;;
21621;SDS011;10973;46.706;12.340;2023-04-25T06:03:16;5.43;;;4.70;;
21621;SDS011;10973;46.706;12.340;2023-04-25T06:05:46;6.97;;;4.83;;
21621;SDS011;10973;46.706;12.340;2023-04-25T06:08:14;6.37;;;4.50;;
21621;SDS011;10973;46.706;12.340;2023-04-25T06:10:41;3.80;;;3.50;;
21621;SDS011;10973;46.706;12.340;2023-04-25T06:13:09;4.20;;;3.83;;
21621;SDS011;10973;46.706;12.340;2023-04-25T06:15:36;5.00;;;4.30;;
21621;SDS011;10973;46.706;12.340;2023-04-25T06:18:04;5.77;;;4.20;;
21621;SDS011;10973;46.706;12.340;2023-04-25T06:20:32;4.30;;;3.57;;
21621;SDS011;10973;46.706;12.340;2023-04-25T06:23:02;3.50;;;3.20;;
21621;SDS011;10973;46.706;12.340;2023-04-25T06:25:31;2.97;;;2.73;;
21621;SDS011;10973;46.706;12.340;2023-04-25T06:27:59;3.57;;;3.30;;
21621;SDS011;10973;46.706;12.340;2023-04-25T06:30:27;8.93;;;5.40;;
21621;SDS011;10973;46.706;12.340;2023-04-25T06:32:55;5.63;;;5.03;;
21621;SDS011;10973;46.706;12.340;2023-04-25T06:35:23;6.73;;;5.50;;
21621;SDS011;10973;46.706;12.340;2023-04-25T06:37:50;7.50;;;6.70;;
21621;SDS011;10973;46.706;12.340;2023-04-25T06:40:18;7.47;;;6.53;;
21621;SDS011;10973;46.706;12.340;2023-04-25T06:42:45;6.10;;;5.50;;
21621;SDS011;10973;46.706;12.340;2023-04-25T06:45:12;4.80;;;4.40;;
21621;SDS011;10973;46.706;12.340;2023-04-25T06:47:40;3.10;;;2.90;;
21621;SDS011;10973;46.706;12.340;2023-04-25T06:50:07;1.97;;;1.83;;
21621;SDS011;10973;46.706;12.340;2023-04-25T06:52:35;2.00;;;1.90;;
21621;SDS011;10973;46.706;12.340;2023-04-25T06:55:05;2.40;;;1.73;;
21621;SDS011;10973;46.706;12.340;2023-04-25T06:57:33;1.60;;;1.60;;
21621;SDS011;10973;46.706;12.340;2023-04-25T07:00:00;2.10;;;2.00;;
21621;SDS011;10973;46.706;12.340;2023-04-25T07:02:28;2.20;;;2.10;;
21621;SDS011;10973;46.706;12.340;2023-04-25T07:04:55;2.03;;;1.93;;
21621;SDS011;10973;46.706;12.340;2023-04-25T07:07:22;1.80;;;1.70;;
21621;SDS011;10973;46.706;12.340;2023-04-25T07:09:50;2.10;;;2.00;;
21621;SDS011;10973;46.706;12.340;2023-04-25T07:12:17;2.87;;;2.60;;
21621;SDS011;10973;46.706;12.340;2023-04-25T07:14:44;2.80;;;2.60;;
21621;SDS011;10973;46.706;12.340;2023-04-25T07:17:12;2.43;;;2.17;;
21621;SDS011;10973;46.706;12.340;2023-04-25T07:19:40;2.53;;;1.83;;
21621;SDS011;10973;46.706;12.340;2023-04-25T07:22:07;1.60;;;1.60;;
21621;SDS011;10973;46.706;12.340;2023-04-25T07:24:34;3.20;;;2.10;;
21621;SDS011;10973;46.706;12.340;2023-04-25T07:27:02;3.67;;;2.53;;
21621;SDS011;10973;46.706;12.340;2023-04-25T07:29:29;2.40;;;2.20;;
21621;SDS011;10973;46.706;12.340;2023-04-25T07:31:57;3.03;;;2.37;;
21621;SDS011;10973;46.706;12.340;2023-04-25T07:34:24;2.40;;;2.30;;
21621;SDS011;10973;46.706;12.340;2023-04-25T07:36:52;5.47;;;2.93;;
21621;SDS011;10973;46.706;12.340;2023-04-25T07:39:20;2.40;;;2.30;;
21621;SDS011;10973;46.706;12.340;2023-04-25T07:41:47;2.70;;;2.50;;
21621;SDS011;10973;46.706;12.340;2023-04-25T07:44:14;2.77;;;2.57;;
21621;SDS011;10973;46.706;12.340;2023-04-25T07:46:42;8.17;;;2.53;;
21621;SDS011;10973;46.706;12.340;2023-04-25T07:49:09;1.93;;;1.90;;
21621;SDS011;10973;46.706;12.340;2023-04-25T07:51:36;2.20;;;2.10;;
21621;SDS011;10973;46.706;12.340;2023-04-25T07:54:04;2.97;;;2.77;;
21621;SDS011;10973;46.706;12.340;2023-04-25T07:56:31;3.00;;;2.70;;
21621;SDS011;10973;46.706;12.340;2023-04-25T07:59:17;3.50;;;2.90;;
21621;SDS011;10973;46.706;12.340;2023-04-25T08:01:44;2.60;;;2.40;;
21621;SDS011;10973;46.706;12.340;2023-04-25T08:04:11;3.00;;;2.80;;
21621;SDS011;10973;46.706;12.340;2023-04-25T08:06:39;2.10;;;2.00;;
21621;SDS011;10973;46.706;12.340;2023-04-25T08:09:07;2.23;;;2.00;;
21621;SDS011;10973;46.706;12.340;2023-04-25T08:11:35;2.03;;;1.80;;
21621;SDS011;10973;46.706;12.340;2023-04-25T08:14:02;1.70;;;1.60;;
21621;SDS011;10973;46.706;12.340;2023-04-25T08:16:30;4.33;;;2.33;;
21621;SDS011;10973;46.706;12.340;2023-04-25T08:18:58;1.93;;;1.83;;
21621;SDS011;10973;46.706;12.340;2023-04-25T08:21:26;1.83;;;1.70;;
21621;SDS011;10973;46.706;12.340;2023-04-25T08:23:54;1.50;;;1.50;;
21621;SDS011;10973;46.706;12.340;2023-04-25T08:26:21;1.80;;;1.70;;
21621;SDS011;10973;46.706;12.340;2023-04-25T08:28:49;1.73;;;1.63;;
21621;SDS011;10973;46.706;12.340;2023-04-25T08:31:17;1.70;;;1.60;;
21621;SDS011;10973;46.706;12.340;2023-04-25T08:33:45;1.50;;;1.40;;
21621;SDS011;10973;46.706;12.340;2023-04-25T08:36:12;1.27;;;1.27;;
21621;SDS011;10973;46.706;12.340;2023-04-25T08:38:46;1.20;;;1.20;;
21621;SDS011;10973;46.706;12.340;2023-04-25T08:41:14;5.60;;;1.83;;
21621;SDS011;10973;46.706;12.340;2023-04-25T08:43:43;3.27;;;2.97;;
21621;SDS011;10973;46.706;12.340;2023-04-25T08:46:11;2.63;;;2.43;;
21621;SDS011;10973;46.706;12.340;2023-04-25T08:48:44;4.70;;;4.30;;
21621;SDS011;10973;46.706;12.340;2023-04-25T08:51:15;2.47;;;2.27;;
21621;SDS011;10973;46.706;12.340;2023-04-25T08:53:50;2.00;;;1.90;;
21621;SDS011;10973;46.706;12.340;2023-04-25T08:56:23;1.63;;;1.53;;
21621;SDS011;10973;46.706;12.340;2023-04-25T08:58:53;1.37;;;1.30;;
21621;SDS011;10973;46.706;12.340;2023-04-25T09:01:22;1.00;;;1.00;;
21621;SDS011;10973;46.706;12.340;2023-04-25T09:03:50;1.20;;;1.20;;
21621;SDS011;10973;46.706;12.340;2023-04-25T09:06:18;1.40;;;1.30;;
21621;SDS011;10973;46.706;12.340;2023-04-25T09:08:46;2.10;;;1.60;;
21621;SDS011;10973;46.706;12.340;2023-04-25T09:11:16;1.40;;;1.40;;
21621;SDS011;10973;46.706;12.340;2023-04-25T09:13:48;1.70;;;1.60;;
21621;SDS011;10973;46.706;12.340;2023-04-25T09:16:16;1.10;;;1.10;;
21621;SDS011;10973;46.706;12.340;2023-04-25T09:18:43;1.10;;;1.10;;
21621;SDS011;10973;46.706;12.340;2023-04-25T09:21:14;1.70;;;1.70;;
21621;SDS011;10973;46.706;12.340;2023-04-25T09:23:44;1.73;;;1.63;;
21621;SDS011;10973;46.706;12.340;2023-04-25T09:26:14;1.67;;;1.57;;
21621;SDS011;10973;46.706;12.340;2023-04-25T09:28:44;4.30;;;3.20;;
21621;SDS011;10973;46.706;12.340;2023-04-25T09:31:12;2.60;;;2.40;;
21621;SDS011;10973;46.706;12.340;2023-04-25T09:33:49;1.10;;;1.10;;
21621;SDS011;10973;46.706;12.340;2023-04-25T09:36:18;2.00;;;1.90;;
21621;SDS011;10973;46.706;12.340;2023-04-25T09:38:53;5.80;;;1.50;;
21621;SDS011;10973;46.706;12.340;2023-04-25T09:41:24;3.30;;;2.63;;
21621;SDS011;10973;46.706;12.340;2023-04-25T09:43:52;1.20;;;1.20;;
21621;SDS011;10973;46.706;12.340;2023-04-25T09:46:25;1.30;;;1.30;;
21621;SDS011;10973;46.706;12.340;2023-04-25T09:49:05;1.60;;;1.30;;
21621;SDS011;10973;46.706;12.340;2023-04-25T09:51:34;1.03;;;1.03;;
21621;SDS011;10973;46.706;12.340;2023-04-25T09:54:02;1.10;;;1.10;;
21621;SDS011;10973;46.706;12.340;2023-04-25T09:56:30;1.03;;;1.03;;
21621;SDS011;10973;46.706;12.340;2023-04-25T09:59:03;7.20;;;1.50;;
21621;SDS011;10973;46.706;12.340;2023-04-25T10:01:32;1.03;;;1.03;;
21621;SDS011;10973;46.706;12.340;2023-04-25T10:04:01;1.70;;;1.60;;
21621;SDS011;10973;46.706;12.340;2023-04-25T10:06:34;1.27;;;1.27;;
21621;SDS011;10973;46.706;12.340;2023-04-25T10:09:04;1.30;;;1.30;;
21621;SDS011;10973;46.706;12.340;2023-04-25T10:11:34;4.70;;;1.40;;
21621;SDS011;10973;46.706;12.340;2023-04-25T10:14:03;1.40;;;1.30;;
21621;SDS011;10973;46.706;12.340;2023-04-25T10:16:31;1.10;;;1.10;;
21621;SDS011;10973;46.706;12.340;2023-04-25T10:18:59;1.10;;;1.10;;
21621;SDS011;10973;46.706;12.340;2023-04-25T10:21:28;0.90;;;0.90;;
21621;SDS011;10973;46.706;12.340;2023-04-25T10:24:00;1.07;;;1.07;;
21621;SDS011;10973;46.706;12.340;2023-04-25T10:26:29;5.80;;;3.77;;
21621;SDS011;10973;46.706;12.340;2023-04-25T10:28:58;1.40;;;1.40;;
21621;SDS011;10973;46.706;12.340;2023-04-25T10:31:31;1.00;;;1.00;;
21621;SDS011;10973;46.706;12.340;2023-04-25T10:33:59;1.17;;;1.17;;
21621;SDS011;10973;46.706;12.340;2023-04-25T10:36:26;0.90;;;0.90;;
21621;SDS011;10973;46.706;12.340;2023-04-25T10:39:02;1.20;;;1.20;;
21621;SDS011;10973;46.706;12.340;2023-04-25T10:42:19;0.90;;;0.90;;
21621;SDS011;10973;46.706;12.340;2023-04-25T10:44:26;1.10;;;1.10;;
21621;SDS011;10973;46.706;12.340;2023-04-25T10:46:58;1.10;;;1.10;;
21621;SDS011;10973;46.706;12.340;2023-04-25T10:49:31;1.17;;;1.17;;
21621;SDS011;10973;46.706;12.340;2023-04-25T10:52:12;1.00;;;1.00;;
21621;SDS011;10973;46.706;12.340;2023-04-25T10:54:53;1.50;;;1.50;;
21621;SDS011;10973;46.706;12.340;2023-04-25T11:00:07;1.40;;;1.27;;
21621;SDS011;10973;46.706;12.340;2023-04-25T11:02:59;1.30;;;1.20;;
21621;SDS011;10973;46.706;12.340;2023-04-25T11:05:31;1.00;;;1.00;;
21621;SDS011;10973;46.706;12.340;2023-04-25T11:08:16;1.10;;;1.10;;
21621;SDS011;10973;46.706;12.340;2023-04-25T11:11:08;2.50;;;2.30;;
21621;SDS011;10973;46.706;12.340;2023-04-25T11:13:36;2.20;;;1.50;;
21621;SDS011;10973;46.706;12.340;2023-04-25T11:16:06;2.60;;;2.40;;
21621;SDS011;10973;46.706;12.340;2023-04-25T11:18:41;1.43;;;1.43;;
21621;SDS011;10973;46.706;12.340;2023-04-25T11:21:11;1.00;;;1.00;;
21621;SDS011;10973;46.706;12.340;2023-04-25T11:23:40;1.07;;;1.07;;
21621;SDS011;10973;46.706;12.340;2023-04-25T11:26:07;1.20;;;1.20;;
21621;SDS011;10973;46.706;12.340;2023-04-25T11:28:34;2.20;;;1.70;;
21621;SDS011;10973;46.706;12.340;2023-04-25T11:31:02;2.37;;;2.17;;
21621;SDS011;10973;46.706;12.340;2023-04-25T11:33:31;2.30;;;2.00;;
21621;SDS011;10973;46.706;12.340;2023-04-25T11:35:58;1.10;;;1.10;;
21621;SDS011;10973;46.706;12.340;2023-04-25T11:38:26;2.13;;;1.50;;
21621;SDS011;10973;46.706;12.340;2023-04-25T11:40:54;1.20;;;1.20;;
21621;SDS011;10973;46.706;12.340;2023-04-25T11:43:22;1.13;;;1.13;;
21621;SDS011;10973;46.706;12.340;2023-04-25T11:45:50;1.10;;;1.10;;
21621;SDS011;10973;46.706;12.340;2023-04-25T11:48:18;1.10;;;1.10;;
21621;SDS011;10973;46.706;12.340;2023-04-25T11:50:51;1.10;;;1.10;;
21621;SDS011;10973;46.706;12.340;2023-04-25T11:53:20;1.00;;;1.00;;
21621;SDS011;10973;46.706;12.340;2023-04-25T11:55:48;1.10;;;1.10;;
21621;SDS011;10973;46.706;12.340;2023-04-25T11:58:17;1.00;;;1.00;;
21621;SDS011;10973;46.706;12.340;2023-04-25T12:00:44;1.00;;;1.00;;
21621;SDS011;10973;46.706;12.340;2023-04-25T12:03:16;1.17;;;1.17;;
21621;SDS011;10973;46.706;12.340;2023-04-25T12:05:45;1.10;;;1.10;;
21621;SDS011;10973;46.706;12.340;2023-04-25T12:08:13;2.10;;;1.10;;
21621;SDS011;10973;46.706;12.340;2023-04-25T12:10:43;1.70;;;1.60;;
21621;SDS011;10973;46.706;12.340;2023-04-25T12:13:23;1.87;;;1.77;;
21621;SDS011;10973;46.706;12.340;2023-04-25T12:15:55;1.43;;;1.33;;
21621;SDS011;10973;46.706;12.340;2023-04-25T12:18:24;1.50;;;1.40;;
21621;SDS011;10973;46.706;12.340;2023-04-25T12:20:52;1.57;;;1.47;;
21621;SDS011;10973;46.706;12.340;2023-04-25T12:23:27;2.13;;;1.70;;
21621;SDS011;10973;46.706;12.340;2023-04-25T12:25:55;0.90;;;0.90;;
21621;SDS011;10973;46.706;12.340;2023-04-25T12:28:23;1.27;;;1.17;;
21621;SDS011;10973;46.706;12.340;2023-04-25T12:31:01;0.80;;;0.80;;
21621;SDS011;10973;46.706;12.340;2023-04-25T12:33:32;2.10;;;1.97;;
21621;SDS011;10973;46.706;12.340;2023-04-25T12:36:02;2.30;;;1.47;;
21621;SDS011;10973;46.706;12.340;2023-04-25T12:38:35;1.70;;;1.60;;
21621;SDS011;10973;46.706;12.340;2023-04-25T12:41:05;1.20;;;1.20;;
21621;SDS011;10973;46.706;12.340;2023-04-25T12:43:33;1.00;;;0.93;;
21621;SDS011;10973;46.706;12.340;2023-04-25T12:46:00;1.13;;;1.13;;
21621;SDS011;10973;46.706;12.340;2023-04-25T12:48:28;0.90;;;0.90;;
21621;SDS011;10973;46.706;12.340;2023-04-25T12:50:55;2.03;;;1.00;;
21621;SDS011;10973;46.706;12.340;2023-04-25T12:53:23;1.27;;;1.13;;
21621;SDS011;10973;46.706;12.340;2023-04-25T12:55:50;1.00;;;1.00;;
21621;SDS011;10973;46.706;12.340;2023-04-25T12:58:18;1.00;;;1.00;;
21621;SDS011;10973;46.706;12.340;2023-04-25T13:00:46;2.73;;;1.00;;
21621;SDS011;10973;46.706;12.340;2023-04-25T13:03:13;1.00;;;1.00;;
21621;SDS011;10973;46.706;12.340;2023-04-25T13:05:41;1.27;;;1.20;;
21621;SDS011;10973;46.706;12.340;2023-04-25T13:08:09;2.43;;;1.07;;
21621;SDS011;10973;46.706;12.340;2023-04-25T13:10:36;1.03;;;1.03;;
21621;SDS011;10973;46.706;12.340;2023-04-25T13:13:04;1.10;;;1.10;;
21621;SDS011;10973;46.706;12.340;2023-04-25T13:15:31;1.47;;;1.20;;
21621;SDS011;10973;46.706;12.340;2023-04-25T13:17:59;1.10;;;1.10;;
21621;SDS011;10973;46.706;12.340;2023-04-25T13:20:26;1.00;;;1.00;;
21621;SDS011;10973;46.706;12.340;2023-04-25T13:22:53;0.90;;;0.90;;
21621;SDS011;10973;46.706;12.340;2023-04-25T13:25:21;4.03;;;1.37;;
21621;SDS011;10973;46.706;12.340;2023-04-25T13:27:49;1.03;;;1.03;;
21621;SDS011;10973;46.706;12.340;2023-04-25T13:30:16;1.00;;;1.00;;
21621;SDS011;10973;46.706;12.340;2023-04-25T13:32:44;1.40;;;1.10;;
21621;SDS011;10973;46.706;12.340;2023-04-25T13:35:13;1.17;;;1.17;;
21621;SDS011;10973;46.706;12.340;2023-04-25T13:37:40;1.10;;;1.10;;
21621;SDS011;10973;46.706;12.340;2023-04-25T13:40:08;1.00;;;1.00;;
21621;SDS011;10973;46.706;12.340;2023-04-25T13:42:38;1.00;;;1.00;;
21621;SDS011;10973;46.706;12.340;2023-04-25T13:45:06;1.10;;;1.00;;
21621;SDS011;10973;46.706;12.340;2023-04-25T13:47:34;1.10;;;1.10;;
21621;SDS011;10973;46.706;12.340;2023-04-25T13:50:02;1.10;;;1.10;;
21621;SDS011;10973;46.706;12.340;2023-04-25T13:52:31;1.80;;;1.20;;
21621;SDS011;10973;46.706;12.340;2023-04-25T13:54:58;1.60;;;1.50;;
21621;SDS011;10973;46.706;12.340;2023-04-25T13:57:26;1.53;;;1.43;;
21621;SDS011;10973;46.706;12.340;2023-04-25T13:59:53;1.80;;;1.70;;
21621;SDS011;10973;46.706;12.340;2023-04-25T14:02:20;1.30;;;1.30;;
21621;SDS011;10973;46.706;12.340;2023-04-25T14:04:48;1.17;;;1.17;;
21621;SDS011;10973;46.706;12.340;2023-04-25T14:07:15;1.20;;;1.20;;
21621;SDS011;10973;46.706;12.340;2023-04-25T14:09:43;1.10;;;1.10;;
21621;SDS011;10973;46.706;12.340;2023-04-25T14:12:10;1.47;;;1.17;;
21621;SDS011;10973;46.706;12.340;2023-04-25T14:14:38;1.17;;;1.17;;
21621;SDS011;10973;46.706;12.340;2023-04-25T14:17:05;1.20;;;1.20;;
21621;SDS011;10973;46.706;12.340;2023-04-25T14:19:32;1.07;;;1.07;;
21621;SDS011;10973;46.706;12.340;2023-04-25T14:22:00;1.10;;;1.10;;
21621;SDS011;10973;46.706;12.340;2023-04-25T14:24:28;1.10;;;1.10;;
21621;SDS011;10973;46.706;12.340;2023-04-25T14:26:55;1.43;;;1.30;;
21621;SDS011;10973;46.706;12.340;2023-04-25T14:29:23;1.40;;;1.40;;
21621;SDS011;10973;46.706;12.340;2023-04-25T14:31:50;1.20;;;1.20;;
21621;SDS011;10973;46.706;12.340;2023-04-25T14:34:17;1.23;;;1.23;;
21621;SDS011;10973;46.706;12.340;2023-04-25T14:36:45;1.30;;;1.20;;
21621;SDS011;10973;46.706;12.340;2023-04-25T14:39:13;1.23;;;1.13;;
21621;SDS011;10973;46.706;12.340;2023-04-25T14:41:40;1.43;;;1.13;;
21621;SDS011;10973;46.706;12.340;2023-04-25T14:44:07;1.00;;;1.00;;